Aviation Digital Data Service (ADDS)

Output produced by METARs form (0444 UTC 25 April 2017)
found at http://www.aviationweather.gov/adds/metars/
 
KMIV 250354Z AUTO 06010KT 10SM OVC008 11/11 A3002 RMK AO2 SLP163 P0001 T01060106
KMIV 250145Z 2502/2524 06010G18KT P6SM VCSH SCT025 OVC035 
     TEMPO 2503/2504 3SM -SHRA BR FEW008 OVC025 
     FM250400 06012KT 6SM -SHRA BR OVC008 
     FM250600 06012G20KT 5SM -SHRA OVC005 
     FM251000 07015G25KT 2SM RA OVC004 
     FM252300 06012G20KT 4SM -SHRA OVC005